Time;durP1;ratioP1;P1;durP2;ratioP2;P2;SDS_P1;SDS_P2;PMS_P1;PMS_P2;Temp;Humidity;BMP_temperature;BMP_pressure;BME280_temperature;BME280_humidity;BME280_pressure;Samples;Min_cycle;Max_cycle;Signal;HPM_P1;HPM_P2
2021/12/13 00:02:05;;;;;;;66.82;34.05;;;10.30;99.90;;;;;;5056173;28;20052;-81
2021/12/13 00:04:33;;;;;;;68.65;32.05;;;10.30;99.90;;;;;;5052707;28;20033;-81
2021/12/13 00:07:12;;;;;;;77.50;33.50;;;10.30;99.90;;;;;;5056503;28;20048;-82
2021/12/13 00:09:43;;;;;;;72.43;33.53;;;10.30;99.90;;;;;;5072032;28;20028;-82
2021/12/13 00:12:10;;;;;;;83.70;38.22;;;10.30;99.90;;;;;;5085969;28;20051;-81
2021/12/13 00:14:46;;;;;;;81.05;38.03;;;10.30;99.90;;;;;;5072786;28;20081;-82
2021/12/13 00:17:16;;;;;;;77.90;34.65;;;10.30;99.90;;;;;;5067781;28;20385;-82
2021/12/13 00:19:49;;;;;;;85.15;36.60;;;10.40;99.90;;;;;;5054186;28;20041;-82
2021/12/13 00:22:23;;;;;;;85.97;38.58;;;10.40;99.90;;;;;;5090358;28;20089;-82
2021/12/13 00:24:50;;;;;;;92.13;38.70;;;10.40;99.90;;;;;;5089208;28;20036;-82
2021/12/13 00:27:24;;;;;;;89.55;37.38;;;10.40;99.90;;;;;;5088977;28;20041;-82
2021/12/13 00:30:04;;;;;;;102.50;43.22;;;10.40;99.90;;;;;;5072992;28;20036;-81
2021/12/13 00:33:03;;;;;;;91.47;40.28;;;10.40;99.90;;;;;;5072130;28;20420;-82
2021/12/13 00:35:40;;;;;;;93.72;39.90;;;10.40;99.90;;;;;;5087857;28;20416;-82
2021/12/13 00:38:10;;;;;;;97.93;42.50;;;10.40;99.90;;;;;;5080770;28;20643;-82
2021/12/13 00:40:41;;;;;;;85.63;36.80;;;10.40;99.90;;;;;;5070352;28;20041;-82
2021/12/13 00:43:19;;;;;;;81.97;39.45;;;10.40;99.90;;;;;;5090327;28;20044;-82
2021/12/13 00:45:54;;;;;;;78.95;33.58;;;10.40;99.90;;;;;;5053709;28;20408;-82
2021/12/13 00:48:21;;;;;;;81.60;39.17;;;10.50;99.90;;;;;;5067310;28;20037;-82
2021/12/13 00:50:59;;;;;;;93.47;40.15;;;10.50;99.90;;;;;;5089188;28;20028;-82
2021/12/13 00:53:26;;;;;;;84.22;36.33;;;10.40;99.90;;;;;;5071721;28;20126;-82
2021/12/13 00:55:52;;;;;;;82.15;36.92;;;10.50;99.90;;;;;;5087573;28;20083;-82
2021/12/13 00:58:22;;;;;;;94.75;41.30;;;10.50;99.90;;;;;;5069973;28;20054;-82
2021/12/13 01:00:57;;;;;;;83.03;35.85;;;10.50;99.90;;;;;;5053397;28;20051;-82
2021/12/13 01:03:32;;;;;;;86.93;39.03;;;10.50;99.90;;;;;;5087050;28;20040;-82
2021/12/13 01:06:37;;;;;;;93.18;41.45;;;10.60;99.90;;;;;;5068792;28;20505;-82
2021/12/13 01:10:00;;;;;;;107.15;43.22;;;10.60;99.90;;;;;;5063961;28;20096;-82
2021/12/13 01:12:27;;;;;;;104.43;43.38;;;10.60;99.90;;;;;;5052717;28;20082;-82
2021/12/13 01:15:00;;;;;;;95.78;42.72;;;10.60;99.90;;;;;;5072041;28;20032;-82
2021/12/13 01:17:58;;;;;;;95.72;41.72;;;10.50;99.90;;;;;;5050325;28;20045;-82
2021/12/13 01:20:42;;;;;;;96.70;39.65;;;10.60;99.90;;;;;;5071734;28;20024;-82
2021/12/13 01:23:15;;;;;;;105.90;44.20;;;10.70;99.90;;;;;;5068310;28;20040;-82
2021/12/13 01:26:02;;;;;;;110.93;46.28;;;10.70;99.90;;;;;;5079478;28;20036;-82
2021/12/13 01:28:29;;;;;;;114.82;45.53;;;10.70;99.90;;;;;;5085767;28;20032;-81
2021/12/13 01:31:02;;;;;;;110.75;46.50;;;10.70;99.90;;;;;;5069955;28;20119;-81
2021/12/13 01:33:30;;;;;;;97.43;45.17;;;10.60;99.90;;;;;;5102121;28;20040;-81
2021/12/13 01:36:01;;;;;;;89.25;40.55;;;10.60;99.90;;;;;;5086517;28;20051;-82
2021/12/13 01:38:35;;;;;;;94.95;40.03;;;10.60;99.90;;;;;;5088589;28;20036;-82
2021/12/13 01:41:15;;;;;;;90.82;40.10;;;10.60;99.90;;;;;;5070334;28;20060;-82
2021/12/13 01:43:48;;;;;;;85.28;40.15;;;10.60;99.90;;;;;;5083266;28;20054;-82
2021/12/13 01:46:16;;;;;;;90.32;38.95;;;10.50;99.90;;;;;;5069825;28;20051;-82
2021/12/13 01:48:44;;;;;;;86.18;38.53;;;10.50;99.90;;;;;;5081939;28;20036;-82
2021/12/13 01:51:13;;;;;;;82.07;34.38;;;10.50;99.90;;;;;;5086709;28;20028;-81
2021/12/13 01:53:45;;;;;;;70.75;33.28;;;10.50;99.90;;;;;;5064280;28;20041;-81
2021/12/13 02:02:19;;;;;;;70.22;30.50;;;10.40;99.90;;;;;;5083316;28;20044;-81
2021/12/13 02:04:53;;;;;;;59.05;29.63;;;10.40;99.90;;;;;;5086218;28;20497;-82
2021/12/13 02:07:22;;;;;;;60.40;27.88;;;10.40;99.90;;;;;;5100627;28;20393;-82
2021/12/13 02:09:49;;;;;;;63.92;30.70;;;10.40;99.90;;;;;;5070151;28;20059;-81
2021/12/13 02:12:18;;;;;;;58.28;26.13;;;10.40;99.90;;;;;;5081730;28;20116;-81
2021/12/13 02:14:49;;;;;;;52.80;24.73;;;10.40;99.90;;;;;;5086085;28;20073;-82
2021/12/13 02:17:21;;;;;;;48.38;24.45;;;10.40;99.90;;;;;;5083249;28;20092;-82
2021/12/13 02:19:57;;;;;;;52.40;26.17;;;10.50;99.90;;;;;;5070064;28;20059;-81
2021/12/13 02:22:39;;;;;;;34.47;20.08;;;10.40;99.90;;;;;;5079557;28;20033;-82
2021/12/13 02:25:22;;;;;;;47.75;23.05;;;10.40;99.90;;;;;;5068435;28;20036;-82
2021/12/13 02:27:55;;;;;;;52.20;23.23;;;10.50;99.90;;;;;;5084455;28;20029;-82
2021/12/13 02:30:24;;;;;;;45.08;21.40;;;10.50;99.90;;;;;;5064867;28;20369;-82
2021/12/13 02:32:50;;;;;;;39.50;20.15;;;10.50;99.90;;;;;;5067241;28;20043;-82
2021/12/13 02:35:20;;;;;;;38.42;21.00;;;10.50;99.90;;;;;;5100386;28;20040;-82
2021/12/13 02:37:46;;;;;;;41.63;20.38;;;10.60;99.90;;;;;;5083568;28;20044;-81
2021/12/13 02:40:18;;;;;;;39.38;21.60;;;10.60;99.90;;;;;;5100211;28;20037;-82
2021/12/13 02:42:44;;;;;;;39.63;21.33;;;10.60;99.90;;;;;;5081486;28;20092;-81
2021/12/13 02:45:32;;;;;;;40.72;21.10;;;10.70;99.90;;;;;;5061257;28;20033;-82
2021/12/13 02:48:09;;;;;;;38.95;22.23;;;10.60;99.90;;;;;;5082499;28;20060;-82
2021/12/13 02:50:47;;;;;;;48.28;27.10;;;10.60;99.90;;;;;;5079879;28;20043;-82
2021/12/13 02:53:18;;;;;;;38.10;22.08;;;10.60;99.90;;;;;;5097277;28;20040;-82
2021/12/13 02:55:43;;;;;;;45.95;23.35;;;10.70;99.90;;;;;;5093666;28;20037;-82
2021/12/13 02:58:14;;;;;;;40.50;22.05;;;10.60;99.90;;;;;;5061700;28;20071;-82
2021/12/13 03:00:52;;;;;;;49.03;24.85;;;10.70;99.90;;;;;;5097315;28;20044;-81
2021/12/13 03:03:22;;;;;;;43.50;24.52;;;10.60;99.90;;;;;;5082454;28;20048;-82
2021/12/13 03:05:51;;;;;;;50.72;26.75;;;10.60;99.90;;;;;;5082133;28;20049;-81
2021/12/13 03:08:34;;;;;;;41.47;21.60;;;10.60;99.90;;;;;;5096890;28;20501;-81
2021/12/13 03:11:10;;;;;;;57.22;29.05;;;10.70;99.90;;;;;;5083482;28;20127;-82
2021/12/13 03:13:36;;;;;;;47.08;24.15;;;10.70;99.90;;;;;;5099996;28;20044;-81
2021/12/13 03:16:14;;;;;;;45.58;25.65;;;10.60;99.90;;;;;;5081502;28;20427;-82
2021/12/13 03:18:56;;;;;;;49.33;26.30;;;10.60;99.90;;;;;;5097122;28;20082;-82
2021/12/13 03:21:57;;;;;;;46.28;23.20;;;10.60;99.90;;;;;;5077472;28;20040;-82
2021/12/13 03:24:36;;;;;;;43.65;23.60;;;10.60;99.90;;;;;;5065477;28;20083;-81
2021/12/13 03:27:04;;;;;;;38.58;20.17;;;10.50;99.90;;;;;;5060963;28;20094;-81
2021/12/13 03:29:57;;;;;;;33.90;18.08;;;10.50;99.90;;;;;;5080337;28;20041;-82
2021/12/13 03:32:23;;;;;;;33.10;20.27;;;10.50;99.90;;;;;;5097414;28;20087;-82
2021/12/13 03:35:05;;;;;;;39.13;19.55;;;10.50;99.90;;;;;;5079795;28;20058;-82
2021/12/13 03:37:33;;;;;;;36.10;20.58;;;10.40;99.90;;;;;;5081841;28;20460;-82
2021/12/13 03:40:04;;;;;;;42.20;21.40;;;10.40;99.90;;;;;;5079575;28;20052;-82
2021/12/13 03:42:42;;;;;;;34.63;20.35;;;10.50;99.90;;;;;;5081397;28;20060;-80
2021/12/13 03:45:32;;;;;;;44.70;20.70;;;10.50;99.90;;;;;;5094869;28;20033;-82
2021/12/13 03:47:59;;;;;;;42.65;23.20;;;10.40;99.90;;;;;;5082194;28;20045;-82
2021/12/13 03:50:51;;;;;;;42.70;21.45;;;10.50;99.90;;;;;;5078935;28;20100;-81
2021/12/13 03:53:23;;;;;;;44.97;20.90;;;10.50;99.90;;;;;;5082438;28;20044;-82
2021/12/13 03:55:56;;;;;;;45.10;22.77;;;10.50;99.90;;;;;;5092483;28;20041;-82
2021/12/13 03:58:25;;;;;;;27.88;17.70;;;10.50;99.90;;;;;;5092767;28;20086;-82
2021/12/13 04:01:03;;;;;;;40.58;19.77;;;10.40;99.90;;;;;;5081507;28;20036;-82
2021/12/13 04:03:30;;;;;;;33.25;16.35;;;10.40;99.90;;;;;;5075530;28;20299;-81
2021/12/13 04:05:57;;;;;;;32.33;16.02;;;10.40;99.90;;;;;;5062755;28;20092;-81
2021/12/13 04:08:24;;;;;;;40.72;17.25;;;10.30;99.90;;;;;;5075926;28;20372;-82
2021/12/13 04:10:57;;;;;;;30.90;16.00;;;10.30;99.90;;;;;;5064430;28;20047;-82
2021/12/13 04:13:27;;;;;;;20.55;13.38;;;10.30;99.90;;;;;;5075288;28;20033;-82
2021/12/13 04:18:29;;;;;;;20.42;12.52;;;10.30;99.90;;;;;;5075650;28;20040;-81
2021/12/13 04:21:05;;;;;;;27.08;14.30;;;10.20;99.90;;;;;;5096699;28;20076;-82
2021/12/13 04:23:33;;;;;;;23.75;11.27;;;10.20;99.90;;;;;;5097446;28;20044;-81
2021/12/13 04:26:01;;;;;;;25.95;14.02;;;10.20;99.90;;;;;;5093321;28;20055;-82
2021/12/13 04:28:34;;;;;;;26.52;15.18;;;10.20;99.90;;;;;;5095001;28;20056;-81
2021/12/13 04:31:06;;;;;;;25.25;13.68;;;10.20;99.90;;;;;;5074263;28;20040;-81
2021/12/13 04:33:36;;;;;;;24.83;12.98;;;10.20;99.90;;;;;;5075460;28;20071;-82
2021/12/13 04:36:07;;;;;;;20.50;12.00;;;10.20;99.90;;;;;;5094422;28;20083;-82
2021/12/13 04:38:50;;;;;;;16.17;9.75;;;10.20;99.90;;;;;;5081594;28;20401;-81
2021/12/13 04:41:33;;;;;;;18.63;9.88;;;10.10;99.90;;;;;;5077013;28;20068;-82
2021/12/13 04:44:14;;;;;;;17.42;9.77;;;10.00;99.90;;;;;;5079888;28;20045;-81
2021/12/13 04:46:42;;;;;;;17.17;10.02;;;10.00;99.90;;;;;;5077177;28;20051;-82
2021/12/13 04:49:14;;;;;;;18.52;11.45;;;9.80;99.90;;;;;;5078200;28;20047;-82
2021/12/13 04:52:03;;;;;;;25.42;12.68;;;9.80;99.90;;;;;;5079588;28;20043;-82
2021/12/13 04:54:32;;;;;;;19.15;11.95;;;9.80;99.90;;;;;;5076038;28;20078;-82
2021/12/13 04:56:59;;;;;;;28.38;14.02;;;9.70;99.90;;;;;;5095171;28;20041;-82
2021/12/13 04:59:27;;;;;;;25.08;15.75;;;9.70;99.90;;;;;;5092548;28;20041;-82
2021/12/13 05:01:58;;;;;;;27.95;13.02;;;9.60;99.90;;;;;;5081961;28;20759;-82
2021/12/13 05:04:25;;;;;;;21.23;13.80;;;9.60;99.90;;;;;;5093710;28;20068;-81
2021/12/13 05:06:52;;;;;;;23.88;14.65;;;9.60;99.90;;;;;;5096374;28;20029;-81
2021/12/13 05:09:22;;;;;;;27.92;14.05;;;9.60;99.90;;;;;;5056573;28;20040;-82
2021/12/13 05:12:14;;;;;;;31.45;14.88;;;9.60;99.90;;;;;;5078029;28;20079;-81
2021/12/13 05:14:50;;;;;;;20.33;12.13;;;9.60;99.90;;;;;;5062053;28;20048;-81
2021/12/13 05:17:35;;;;;;;25.70;14.10;;;9.50;99.90;;;;;;5075513;28;20397;-82
2021/12/13 05:20:32;;;;;;;23.27;13.70;;;9.50;99.90;;;;;;5060468;28;20048;-82
2021/12/13 05:23:22;;;;;;;25.60;13.80;;;9.50;99.90;;;;;;5060850;28;20060;-82
2021/12/13 05:25:55;;;;;;;25.13;13.57;;;9.50;99.90;;;;;;5061838;28;20098;-81
2021/12/13 05:28:25;;;;;;;23.13;13.68;;;9.50;99.90;;;;;;5072858;28;20037;-81
2021/12/13 05:30:59;;;;;;;23.95;14.73;;;9.50;99.90;;;;;;5090774;28;20044;-82
2021/12/13 05:33:28;;;;;;;24.38;13.85;;;9.40;99.90;;;;;;5095322;28;20040;-81
2021/12/13 05:35:58;;;;;;;23.58;14.77;;;9.50;99.90;;;;;;5059174;28;20527;-81
2021/12/13 05:38:45;;;;;;;24.00;14.15;;;9.50;99.90;;;;;;5056492;28;20044;-82
2021/12/13 05:41:24;;;;;;;26.80;14.48;;;9.50;99.90;;;;;;5089415;28;20063;-81
2021/12/13 05:43:55;;;;;;;24.08;13.07;;;9.50;99.90;;;;;;5094093;28;20100;-81
2021/12/13 05:46:33;;;;;;;25.40;13.90;;;9.50;99.90;;;;;;5075539;28;20036;-81
2021/12/13 05:49:02;;;;;;;30.75;13.63;;;9.50;99.90;;;;;;5091347;28;20048;-81
2021/12/13 05:51:33;;;;;;;21.50;12.30;;;9.40;99.90;;;;;;5077409;28;20402;-81
2021/12/13 05:54:12;;;;;;;23.90;12.27;;;9.40;99.90;;;;;;5093614;28;20044;-81
2021/12/13 05:56:40;;;;;;;26.73;13.65;;;9.40;99.90;;;;;;5076946;28;20043;-81
2021/12/13 05:59:12;;;;;;;19.65;12.15;;;9.40;99.90;;;;;;5075605;28;20044;-81
2021/12/13 06:01:53;;;;;;;21.63;12.32;;;9.40;99.90;;;;;;5077913;28;21151;-81
2021/12/13 06:04:40;;;;;;;18.48;10.18;;;9.40;99.90;;;;;;5055444;28;20044;-82
2021/12/13 06:07:23;;;;;;;18.13;10.43;;;9.40;99.90;;;;;;5060203;28;20028;-82
2021/12/13 06:09:58;;;;;;;18.00;9.70;;;9.40;99.90;;;;;;5071997;28;20329;-81
2021/12/13 06:12:45;;;;;;;18.88;9.93;;;9.40;99.90;;;;;;5086745;28;20040;-81
2021/12/13 06:15:17;;;;;;;15.25;8.93;;;9.40;99.90;;;;;;5053740;28;20041;-81
2021/12/13 06:18:04;;;;;;;13.50;9.38;;;9.40;99.90;;;;;;5076174;28;20235;-81
2021/12/13 06:20:54;;;;;;;16.45;9.23;;;9.40;99.90;;;;;;5056369;23;20075;-80
2021/12/13 06:23:26;;;;;;;18.38;8.95;;;9.40;99.90;;;;;;5075623;28;20040;-80
2021/12/13 06:26:05;;;;;;;13.77;8.65;;;9.40;99.90;;;;;;5075415;28;20032;-80
2021/12/13 06:28:40;;;;;;;13.00;7.93;;;9.50;99.90;;;;;;5091830;28;20032;-80
2021/12/13 06:31:10;;;;;;;14.95;7.80;;;9.50;99.90;;;;;;5086933;28;20104;-80
2021/12/13 06:33:54;;;;;;;14.52;8.05;;;9.40;99.90;;;;;;5080477;28;20059;-80
2021/12/13 06:36:31;;;;;;;13.38;7.53;;;9.50;99.90;;;;;;5056722;28;20048;-80
2021/12/13 06:39:04;;;;;;;16.10;8.77;;;9.50;99.90;;;;;;5083908;28;20037;-80
2021/12/13 06:41:36;;;;;;;17.95;9.93;;;9.40;99.90;;;;;;5101446;28;20039;-80
2021/12/13 06:44:30;;;;;;;15.18;9.00;;;9.40;99.90;;;;;;5101015;28;20048;-80
2021/12/13 06:47:05;;;;;;;13.77;8.85;;;9.40;99.90;;;;;;5095864;28;20514;-80
2021/12/13 06:49:41;;;;;;;19.27;10.45;;;9.40;99.90;;;;;;5097188;28;20626;-80
2021/12/13 06:52:19;;;;;;;17.60;10.20;;;9.40;99.90;;;;;;5076606;28;20037;-80
2021/12/13 06:54:59;;;;;;;16.27;10.48;;;9.40;99.90;;;;;;5092708;28;20157;-79
2021/12/13 06:57:35;;;;;;;19.33;11.88;;;9.40;99.90;;;;;;5081205;28;20569;-80
2021/12/13 07:00:21;;;;;;;19.60;10.07;;;9.40;99.90;;;;;;5086174;28;20103;-79
2021/12/13 07:03:05;;;;;;;19.63;10.68;;;9.40;99.90;;;;;;5078340;28;20067;-80
2021/12/13 07:05:52;;;;;;;27.27;11.85;;;9.40;99.90;;;;;;5061405;28;20037;-80
2021/12/13 07:08:20;;;;;;;21.10;13.02;;;9.40;99.90;;;;;;5083223;28;20130;-80
2021/12/13 07:11:12;;;;;;;23.67;14.27;;;9.40;99.90;;;;;;5079298;28;20051;-80
2021/12/13 07:13:58;;;;;;;22.33;12.90;;;9.40;99.90;;;;;;5084952;28;20039;-79
2021/12/13 07:16:32;;;;;;;20.63;12.50;;;9.40;99.90;;;;;;5090143;28;20161;-80
2021/12/13 07:19:07;;;;;;;22.50;13.23;;;9.40;99.90;;;;;;5087461;28;20115;-79
2021/12/13 07:21:43;;;;;;;20.17;13.35;;;9.30;99.90;;;;;;5080202;28;20237;-82
2021/12/13 07:24:18;;;;;;;20.05;12.73;;;9.30;99.90;;;;;;5063475;28;20396;-82
2021/12/13 07:27:04;;;;;;;20.50;13.48;;;9.30;99.90;;;;;;5079915;28;20032;-82
2021/12/13 07:29:54;;;;;;;24.38;13.85;;;9.30;99.90;;;;;;5080938;28;20126;-82
2021/12/13 07:32:40;;;;;;;25.83;14.18;;;9.30;99.90;;;;;;5083421;28;20415;-82
2021/12/13 07:35:21;;;;;;;21.45;13.77;;;9.20;99.90;;;;;;5089837;28;20435;-83
2021/12/13 07:38:10;;;;;;;29.27;16.02;;;9.20;99.90;;;;;;5090032;28;20368;-82
2021/12/13 07:40:52;;;;;;;26.00;15.88;;;9.30;99.90;;;;;;5062796;28;20051;-82
2021/12/13 07:43:34;;;;;;;30.15;16.85;;;9.30;99.90;;;;;;5079154;28;20496;-82
2021/12/13 07:46:12;;;;;;;33.70;19.48;;;9.30;99.90;;;;;;5078458;28;20044;-82
2021/12/13 07:48:41;;;;;;;28.85;17.10;;;9.30;99.90;;;;;;5085004;28;20126;-82
2021/12/13 07:51:15;;;;;;;25.70;16.45;;;9.30;99.90;;;;;;5089448;28;20434;-82
2021/12/13 07:53:43;;;;;;;30.07;18.30;;;9.20;99.90;;;;;;5091253;28;20047;-82
2021/12/13 07:56:11;;;;;;;28.77;18.45;;;9.30;99.90;;;;;;5062372;28;20373;-82
2021/12/13 07:58:47;;;;;;;33.13;19.83;;;9.30;99.90;;;;;;5088181;28;20447;-82
2021/12/13 08:01:21;;;;;;;27.35;18.33;;;9.30;99.90;;;;;;5082658;28;20032;-82
2021/12/13 08:03:51;;;;;;;33.78;20.77;;;9.30;99.90;;;;;;5092545;28;20040;-82
2021/12/13 08:06:18;;;;;;;32.28;19.20;;;9.30;99.90;;;;;;5079381;28;20040;-82
2021/12/13 08:08:51;;;;;;;34.03;21.08;;;9.30;99.90;;;;;;5086334;28;20501;-82
2021/12/13 08:11:18;;;;;;;31.23;19.48;;;9.30;99.90;;;;;;5098534;28;20071;-82
2021/12/13 08:13:59;;;;;;;34.67;21.83;;;9.30;99.90;;;;;;5090428;28;20036;-82
2021/12/13 08:16:46;;;;;;;31.83;19.95;;;9.30;99.90;;;;;;5061534;28;20059;-82
2021/12/13 08:19:25;;;;;;;31.55;21.10;;;9.40;99.90;;;;;;5088573;28;20404;-82
2021/12/13 08:21:57;;;;;;;33.78;22.25;;;9.30;99.90;;;;;;5090143;28;20036;-82
2021/12/13 08:24:31;;;;;;;35.80;22.30;;;9.40;99.90;;;;;;5077453;28;20037;-82
2021/12/13 08:27:04;;;;;;;35.47;20.20;;;9.40;99.90;;;;;;5077094;28;20434;-82
2021/12/13 08:29:34;;;;;;;37.67;22.02;;;9.40;99.90;;;;;;5090415;28;20089;-82
2021/12/13 08:32:07;;;;;;;35.72;20.63;;;9.40;99.90;;;;;;5063775;28;20471;-82
2021/12/13 08:34:49;;;;;;;35.58;21.73;;;9.40;99.90;;;;;;5077257;28;20040;-82
2021/12/13 08:37:20;;;;;;;33.55;20.67;;;9.50;99.90;;;;;;5060321;28;20044;-82
2021/12/13 08:39:51;;;;;;;32.30;21.00;;;9.50;99.90;;;;;;5073842;28;20071;-82
2021/12/13 08:42:21;;;;;;;39.05;22.40;;;9.50;99.90;;;;;;5096401;28;20583;-82
2021/12/13 08:45:06;;;;;;;34.60;21.08;;;9.40;99.90;;;;;;5082253;28;20096;-82
2021/12/13 08:47:40;;;;;;;35.53;21.15;;;9.50;99.90;;;;;;5084845;28;20064;-82
2021/12/13 08:50:16;;;;;;;36.08;20.98;;;9.50;99.90;;;;;;5067493;28;20048;-82
2021/12/13 08:52:45;;;;;;;34.80;20.38;;;9.50;99.90;;;;;;5076863;28;20112;-82
2021/12/13 08:55:10;;;;;;;36.08;22.25;;;9.50;99.90;;;;;;5076251;28;20036;-81
2021/12/13 08:57:57;;;;;;;33.00;20.08;;;9.50;99.90;;;;;;5076090;28;20569;-82
2021/12/13 09:00:30;;;;;;;30.48;18.65;;;9.40;99.90;;;;;;5083306;28;20043;-82
2021/12/13 09:03:17;;;;;;;32.10;20.25;;;9.50;99.90;;;;;;5075990;28;20402;-82
2021/12/13 09:06:04;;;;;;;32.58;19.45;;;9.50;99.90;;;;;;5065426;28;20036;-82
2021/12/13 09:08:53;;;;;;;30.20;18.65;;;9.50;99.90;;;;;;5075769;28;20044;-82
2021/12/13 09:11:43;;;;;;;30.02;19.70;;;9.50;99.90;;;;;;5085021;28;20436;-82
2021/12/13 09:14:19;;;;;;;31.55;19.02;;;9.50;99.90;;;;;;5087802;28;20389;-82
2021/12/13 09:17:07;;;;;;;27.10;17.95;;;9.50;99.90;;;;;;5088190;28;20132;-82
2021/12/13 09:19:46;;;;;;;34.25;20.30;;;9.50;99.90;;;;;;5074276;28;20041;-82
2021/12/13 09:22:18;;;;;;;28.55;20.45;;;9.50;99.90;;;;;;5083494;28;20044;-82
2021/12/13 09:24:46;;;;;;;26.42;17.63;;;9.50;99.90;;;;;;5074753;28;20037;-82
2021/12/13 09:27:35;;;;;;;29.80;18.42;;;9.50;99.90;;;;;;5075597;28;20052;-81
2021/12/13 09:30:16;;;;;;;29.75;18.63;;;9.50;99.90;;;;;;5072467;28;20123;-80
2021/12/13 09:33:04;;;;;;;25.85;17.65;;;9.50;99.90;;;;;;5083483;28;20063;-80
2021/12/13 09:35:38;;;;;;;30.52;19.52;;;9.60;99.90;;;;;;5058014;28;20107;-80
2021/12/13 09:38:41;;;;;;;28.73;17.67;;;9.50;99.90;;;;;;5075168;28;20170;-82
2021/12/13 09:41:13;;;;;;;26.48;17.90;;;9.60;99.90;;;;;;4997796;28;20068;-81
2021/12/13 09:44:19;;;;;;;27.35;17.75;;;9.50;99.90;;;;;;5065022;28;20119;-82
2021/12/13 09:46:51;;;;;;;29.63;18.73;;;9.50;99.90;;;;;;5074175;28;20029;-81
2021/12/13 09:49:38;;;;;;;23.25;14.65;;;9.60;99.90;;;;;;5092293;28;20044;-82
2021/12/13 09:52:24;;;;;;;28.08;17.15;;;9.60;99.90;;;;;;5075476;28;20032;-81
2021/12/13 09:55:04;;;;;;;27.38;15.55;;;9.60;99.90;;;;;;5074706;28;20124;-81
2021/12/13 09:57:53;;;;;;;31.25;17.42;;;9.70;99.90;;;;;;5074376;28;20040;-81
2021/12/13 10:00:26;;;;;;;25.67;16.42;;;9.70;99.90;;;;;;5082773;28;20072;-82
2021/12/13 10:02:56;;;;;;;28.10;17.52;;;9.70;99.90;;;;;;5082453;28;20478;-82
2021/12/13 10:05:28;;;;;;;23.75;15.82;;;9.70;99.90;;;;;;5057879;28;20067;-82
2021/12/13 10:07:59;;;;;;;24.27;15.52;;;9.70;99.90;;;;;;5074057;28;20082;-81
2021/12/13 10:10:32;;;;;;;23.38;15.80;;;9.80;99.90;;;;;;5081559;28;20036;-81
2021/12/13 10:13:04;;;;;;;24.67;15.05;;;9.80;99.90;;;;;;5075103;28;20617;-82
2021/12/13 10:15:48;;;;;;;30.90;15.93;;;9.80;99.90;;;;;;5075309;28;20040;-81
2021/12/13 10:18:22;;;;;;;21.08;15.05;;;9.80;99.90;;;;;;5074305;28;20040;-82
2021/12/13 10:21:19;;;;;;;28.05;17.08;;;9.80;99.90;;;;;;5085451;28;20048;-82
2021/12/13 10:23:53;;;;;;;25.70;15.82;;;9.80;99.90;;;;;;5058268;28;20048;-81
2021/12/13 10:26:20;;;;;;;26.30;14.23;;;9.90;99.90;;;;;;5081476;28;20036;-81
2021/12/13 10:28:55;;;;;;;22.30;14.40;;;9.90;99.90;;;;;;5075612;28;20093;-81
2021/12/13 10:31:27;;;;;;;21.85;14.02;;;9.90;99.90;;;;;;5085032;28;20043;-81
2021/12/13 10:33:55;;;;;;;27.90;15.02;;;9.90;99.90;;;;;;5061529;28;20041;-81
2021/12/13 10:36:21;;;;;;;21.63;14.18;;;9.90;99.90;;;;;;5063194;28;20048;-81
2021/12/13 10:38:53;;;;;;;22.30;13.98;;;9.90;99.90;;;;;;5078552;28;20549;-81
2021/12/13 10:41:24;;;;;;;22.73;14.15;;;9.90;99.90;;;;;;5087613;28;20040;-81
2021/12/13 10:43:58;;;;;;;23.05;14.48;;;9.90;99.90;;;;;;5077999;28;20032;-81
2021/12/13 10:46:31;;;;;;;22.70;13.55;;;9.90;99.90;;;;;;5077271;28;20036;-81
2021/12/13 10:49:14;;;;;;;20.38;14.60;;;9.90;99.90;;;;;;5093483;28;20059;-82
2021/12/13 10:51:43;;;;;;;23.38;13.70;;;9.90;99.90;;;;;;5075442;28;20077;-81
2021/12/13 10:54:16;;;;;;;21.83;13.43;;;9.90;99.90;;;;;;5077328;28;20037;-81
2021/12/13 10:56:47;;;;;;;22.88;13.73;;;10.00;99.90;;;;;;5076624;28;20437;-81
2021/12/13 10:59:18;;;;;;;24.05;16.13;;;9.90;99.90;;;;;;5077563;28;20575;-81
2021/12/13 11:01:49;;;;;;;20.40;13.98;;;10.00;99.90;;;;;;5093540;28;20031;-80
2021/12/13 11:04:21;;;;;;;23.35;15.18;;;10.00;99.90;;;;;;5084929;28;20079;-80
2021/12/13 11:06:47;;;;;;;22.58;13.07;;;10.00;99.90;;;;;;5077031;28;20091;-80
2021/12/13 11:09:19;;;;;;;23.48;14.27;;;10.00;99.90;;;;;;5076809;28;20079;-80
2021/12/13 11:11:51;;;;;;;19.88;13.52;;;10.10;99.90;;;;;;5090971;28;20032;-80
2021/12/13 11:14:20;;;;;;;16.92;11.18;;;10.10;99.90;;;;;;5092645;28;20104;-80
2021/12/13 11:16:51;;;;;;;19.20;12.40;;;10.10;99.90;;;;;;5080150;28;20040;-80
2021/12/13 11:19:22;;;;;;;22.42;12.32;;;10.10;99.90;;;;;;5077955;28;20051;-80
2021/12/13 11:21:51;;;;;;;19.50;12.25;;;10.20;99.90;;;;;;5062566;28;20096;-80
2021/12/13 11:24:22;;;;;;;17.13;12.73;;;10.20;99.90;;;;;;5085566;28;20039;-80
2021/12/13 11:26:52;;;;;;;17.17;12.00;;;10.30;99.90;;;;;;5102161;28;20083;-80
2021/12/13 11:29:18;;;;;;;23.30;12.88;;;10.20;99.90;;;;;;5089168;28;20166;-80
2021/12/13 11:31:53;;;;;;;20.15;12.75;;;10.20;99.90;;;;;;5098201;28;20483;-79
2021/12/13 11:34:34;;;;;;;22.27;11.18;;;10.30;99.90;;;;;;5099093;28;20048;-80
2021/12/13 11:37:11;;;;;;;20.65;11.88;;;10.20;99.90;;;;;;5083242;28;20050;-80
2021/12/13 11:39:56;;;;;;;22.00;11.73;;;10.20;99.90;;;;;;5066803;28;20108;-80
2021/12/13 11:42:40;;;;;;;17.98;11.27;;;10.30;99.90;;;;;;5085983;28;20032;-80
2021/12/13 11:45:30;;;;;;;18.88;12.32;;;10.30;99.90;;;;;;5101058;28;20071;-80
2021/12/13 11:48:23;;;;;;;20.42;11.77;;;10.30;99.90;;;;;;5106590;28;20108;-80
2021/12/13 11:51:26;;;;;;;20.85;13.02;;;10.30;99.90;;;;;;5095723;28;20104;-80
2021/12/13 11:54:11;;;;;;;19.33;11.88;;;10.30;99.90;;;;;;5095113;28;20202;-80
2021/12/13 11:57:11;;;;;;;16.63;10.52;;;10.30;99.90;;;;;;5094984;28;20033;-80
2021/12/13 12:00:18;;;;;;;21.17;12.85;;;10.30;99.90;;;;;;5108061;28;20043;-80
2021/12/13 12:03:21;;;;;;;18.02;11.32;;;10.30;99.90;;;;;;5086562;28;20044;-80
2021/12/13 12:06:25;;;;;;;16.80;11.40;;;10.30;99.90;;;;;;5091380;28;20076;-80
2021/12/13 12:09:19;;;;;;;17.73;11.10;;;10.30;99.90;;;;;;5083455;28;20052;-81
2021/12/13 12:12:22;;;;;;;19.85;12.05;;;10.30;99.90;;;;;;5074997;28;20041;-81
2021/12/13 12:14:49;;;;;;;16.33;10.88;;;10.30;99.90;;;;;;5083901;28;20043;-79
2021/12/13 12:17:16;;;;;;;19.88;11.55;;;10.30;99.90;;;;;;5066694;28;20488;-79
2021/12/13 12:19:42;;;;;;;18.60;11.10;;;10.30;99.90;;;;;;5079515;28;20051;-79
2021/12/13 12:22:20;;;;;;;17.73;11.90;;;10.30;99.90;;;;;;5106894;23;20032;-78
2021/12/13 12:24:50;;;;;;;22.13;12.75;;;10.30;99.90;;;;;;5056000;28;20045;-81
2021/12/13 12:27:20;;;;;;;17.85;10.73;;;10.30;99.90;;;;;;5075093;28;20040;-80
2021/12/13 12:29:53;;;;;;;19.17;13.07;;;10.20;99.90;;;;;;5077696;28;20071;-81
2021/12/13 12:32:23;;;;;;;17.95;11.15;;;10.30;99.90;;;;;;5043267;28;20041;-81
2021/12/13 12:35:00;;;;;;;17.48;11.40;;;10.30;99.90;;;;;;5049289;28;20047;-80
2021/12/13 12:37:32;;;;;;;19.45;10.88;;;10.30;99.90;;;;;;5052721;28;20141;-81
2021/12/13 12:40:10;;;;;;;21.95;11.50;;;10.30;99.90;;;;;;5070327;28;20119;-81
2021/12/13 12:42:51;;;;;;;17.95;11.73;;;10.30;99.90;;;;;;5063670;28;20575;-81
2021/12/13 12:45:44;;;;;;;17.58;12.15;;;10.30;99.90;;;;;;5071422;28;20043;-81
2021/12/13 12:48:18;;;;;;;20.15;11.18;;;10.30;99.90;;;;;;5075362;28;20044;-81
2021/12/13 12:50:54;;;;;;;19.98;12.57;;;10.30;99.90;;;;;;5066381;28;20049;-81
2021/12/13 12:53:43;;;;;;;18.58;12.13;;;10.30;99.90;;;;;;5065847;28;21054;-81
2021/12/13 12:56:24;;;;;;;18.42;10.52;;;10.30;99.90;;;;;;5066183;28;20071;-81
2021/12/13 12:59:01;;;;;;;19.33;11.05;;;10.30;99.90;;;;;;5055758;28;20090;-80
2021/12/13 13:01:49;;;;;;;18.40;11.80;;;10.30;99.90;;;;;;5059570;28;20048;-81
2021/12/13 13:04:15;;;;;;;18.52;11.77;;;10.30;99.90;;;;;;5061530;28;20090;-81
2021/12/13 13:07:09;;;;;;;17.42;10.55;;;10.40;99.90;;;;;;5047362;28;20037;-81
2021/12/13 13:09:34;;;;;;;22.15;11.95;;;10.40;99.90;;;;;;5064813;28;20041;-81
2021/12/13 13:12:00;;;;;;;16.40;11.13;;;10.50;99.90;;;;;;5046061;28;20044;-81
2021/12/13 13:14:30;;;;;;;16.17;10.10;;;10.60;99.90;;;;;;5068518;28;20552;-81
2021/12/13 13:17:00;;;;;;;18.13;11.30;;;10.60;99.90;;;;;;5076708;28;20045;-80
2021/12/13 13:19:36;;;;;;;18.50;10.73;;;10.60;99.90;;;;;;5071600;28;20052;-80
2021/12/13 13:22:07;;;;;;;15.10;10.25;;;10.70;99.90;;;;;;5059233;28;20079;-81
2021/12/13 13:24:40;;;;;;;22.77;11.52;;;10.70;99.90;;;;;;5074814;28;20092;-81
2021/12/13 13:27:06;;;;;;;19.85;11.60;;;10.70;99.90;;;;;;5073989;28;20041;-81